Time;durP1;ratioP1;P1;durP2;ratioP2;P2;SDS_P1;SDS_P2;PMS_P1;PMS_P2;Temp;Humidity;BMP_temperature;BMP_pressure;BME280_temperature;BME280_humidity;BME280_pressure;Samples;Min_cycle;Max_cycle;Signal;HPM_P1;HPM_P2
2023/09/13 00:01:45;;;;;;;8.33;7.47;;;;;;;;;;4918629;29;20220;-75
2023/09/13 00:04:49;;;;;;;9.50;7.20;;;;;;;;;;4918852;29;20181;-76
2023/09/13 00:07:53;;;;;;;11.50;7.13;;;;;;;;;;4917977;29;20637;-76
2023/09/13 00:11:02;;;;;;;12.50;7.57;;;;;;;;;;4917814;29;20227;-75
2023/09/13 00:14:06;;;;;;;10.53;7.30;;;;;;;;;;4907243;29;20185;-76
2023/09/13 00:17:10;;;;;;;8.63;7.10;;;;;;;;;;4906796;29;20185;-75
2023/09/13 00:20:15;;;;;;;9.83;6.90;;;;;;;;;;4906939;29;20185;-76
2023/09/13 00:23:19;;;;;;;8.80;7.00;;;;;;;;;;4918203;29;20185;-76
2023/09/13 00:26:24;;;;;;;9.73;7.00;;;;;;;;;;4917624;29;20212;-75
2023/09/13 00:29:32;;;;;;;11.93;7.07;;;;;;;;;;4898902;29;20185;-76
2023/09/13 00:32:36;;;;;;;8.77;7.10;;;;;;;;;;4909926;29;20663;-75
2023/09/13 00:35:41;;;;;;;9.50;6.73;;;;;;;;;;4898377;29;20633;-75
2023/09/13 00:38:45;;;;;;;8.63;6.70;;;;;;;;;;4899310;29;20185;-76
2023/09/13 00:41:49;;;;;;;8.47;7.03;;;;;;;;;;4898070;29;20221;-75
2023/09/13 00:44:53;;;;;;;8.30;6.63;;;;;;;;;;4909069;29;20189;-76
2023/09/13 00:47:57;;;;;;;9.53;6.87;;;;;;;;;;4908966;29;20190;-75
2023/09/13 00:51:03;;;;;;;9.30;6.70;;;;;;;;;;4899261;29;20709;-76
2023/09/13 00:54:09;;;;;;;9.47;7.50;;;;;;;;;;4908701;29;20185;-76
2023/09/13 00:57:13;;;;;;;8.67;7.77;;;;;;;;;;4908196;29;20182;-76
2023/09/13 01:00:19;;;;;;;9.90;8.00;;;;;;;;;;4897982;29;20189;-76
2023/09/13 01:03:24;;;;;;;13.80;7.80;;;;;;;;;;4897649;29;20209;-76
2023/09/13 01:06:28;;;;;;;12.07;7.87;;;;;;;;;;4908723;29;20224;-76
2023/09/13 01:09:33;;;;;;;10.47;7.50;;;;;;;;;;4908752;29;20189;-76
2023/09/13 01:12:39;;;;;;;12.60;7.63;;;;;;;;;;4897771;29;20233;-75
2023/09/13 01:15:57;;;;;;;10.60;7.67;;;;;;;;;;4908660;29;20185;-75
2023/09/13 01:19:37;;;;;;;10.47;7.90;;;;;;;;;;4908309;29;20188;-76
2023/09/13 01:22:53;;;;;;;9.00;7.10;;;;;;;;;;4897472;29;20230;-76
2023/09/13 01:26:20;;;;;;;9.53;7.07;;;;;;;;;;4923260;29;20217;-76
2023/09/13 01:29:25;;;;;;;12.03;7.60;;;;;;;;;;4916593;29;20193;-75
2023/09/13 01:32:29;;;;;;;11.27;7.30;;;;;;;;;;4916175;29;20216;-75
2023/09/13 01:35:33;;;;;;;9.23;7.03;;;;;;;;;;4916215;29;20180;-75
2023/09/13 01:38:38;;;;;;;11.07;6.97;;;;;;;;;;4916551;29;20189;-75
2023/09/13 01:41:56;;;;;;;12.73;6.63;;;;;;;;;;4916161;29;20229;-75
2023/09/13 01:45:00;;;;;;;11.03;8.03;;;;;;;;;;4905687;29;20185;-76
2023/09/13 01:48:05;;;;;;;9.40;6.80;;;;;;;;;;4916417;29;20181;-75
2023/09/13 01:51:09;;;;;;;10.50;7.00;;;;;;;;;;4917240;29;20228;-75
2023/09/13 01:54:13;;;;;;;9.63;7.20;;;;;;;;;;4917018;29;20216;-75
2023/09/13 01:57:17;;;;;;;11.93;7.10;;;;;;;;;;4905524;29;20185;-75
2023/09/13 02:00:21;;;;;;;10.83;6.93;;;;;;;;;;4916434;29;20184;-75
2023/09/13 02:03:26;;;;;;;7.60;6.70;;;;;;;;;;4905472;29;20215;-75
2023/09/13 02:06:30;;;;;;;8.00;7.00;;;;;;;;;;4905797;29;20213;-75
2023/09/13 02:09:36;;;;;;;8.70;7.30;;;;;;;;;;4920189;29;20184;-75
2023/09/13 02:12:40;;;;;;;11.17;7.17;;;;;;;;;;4909216;29;20224;-75
2023/09/13 02:15:44;;;;;;;14.93;7.00;;;;;;;;;;4920488;29;20192;-75
2023/09/13 02:18:51;;;;;;;7.63;6.37;;;;;;;;;;4920124;29;20181;-75
2023/09/13 02:21:55;;;;;;;11.03;7.40;;;;;;;;;;4909508;29;20216;-76
2023/09/13 02:24:59;;;;;;;7.37;6.67;;;;;;;;;;4920347;29;20572;-75
2023/09/13 02:28:05;;;;;;;10.43;6.93;;;;;;;;;;4920225;29;20177;-75
2023/09/13 02:31:09;;;;;;;9.77;6.77;;;;;;;;;;4909025;29;20726;-75
2023/09/13 02:34:13;;;;;;;10.07;6.90;;;;;;;;;;4919697;29;20193;-75
2023/09/13 02:37:17;;;;;;;8.10;6.97;;;;;;;;;;4908455;29;20177;-75
2023/09/13 02:40:21;;;;;;;14.13;7.00;;;;;;;;;;4919109;29;20189;-75
2023/09/13 02:43:26;;;;;;;7.73;6.23;;;;;;;;;;4908379;29;20198;-75
2023/09/13 02:46:30;;;;;;;10.77;6.40;;;;;;;;;;4919126;29;20216;-75
2023/09/13 02:49:34;;;;;;;8.13;6.37;;;;;;;;;;4919097;29;20184;-75
2023/09/13 02:52:40;;;;;;;7.77;6.50;;;;;;;;;;4907885;29;20220;-75
2023/09/13 02:55:44;;;;;;;7.57;5.97;;;;;;;;;;4918656;29;20193;-75
2023/09/13 02:58:48;;;;;;;6.57;5.33;;;;;;;;;;4918760;29;20193;-76
2023/09/13 03:01:52;;;;;;;8.03;5.50;;;;;;;;;;4918332;29;20573;-76
2023/09/13 03:04:57;;;;;;;6.77;5.83;;;;;;;;;;4907849;29;20649;-75
2023/09/13 03:08:02;;;;;;;6.57;5.87;;;;;;;;;;4908141;29;20213;-75
2023/09/13 03:11:15;;;;;;;6.83;5.93;;;;;;;;;;4918622;29;20220;-76
2023/09/13 03:14:19;;;;;;;7.93;6.03;;;;;;;;;;4907934;29;20177;-75
2023/09/13 03:17:23;;;;;;;7.17;5.90;;;;;;;;;;4908333;29;20177;-76
2023/09/13 03:20:28;;;;;;;8.47;6.17;;;;;;;;;;4907152;29;20634;-75
2023/09/13 03:23:33;;;;;;;6.40;5.70;;;;;;;;;;4918229;29;20185;-75
2023/09/13 03:26:37;;;;;;;7.40;6.60;;;;;;;;;;4918191;29;20212;-75
2023/09/13 03:29:41;;;;;;;8.47;6.00;;;;;;;;;;4918449;29;20193;-75
2023/09/13 03:32:45;;;;;;;6.60;5.57;;;;;;;;;;4918187;29;20228;-75
2023/09/13 03:35:52;;;;;;;8.13;5.90;;;;;;;;;;4918787;29;20181;-75
2023/09/13 03:38:56;;;;;;;8.13;5.73;;;;;;;;;;4907358;29;20189;-75
2023/09/13 03:42:02;;;;;;;5.90;5.30;;;;;;;;;;4918068;29;20217;-75
2023/09/13 03:45:07;;;;;;;7.30;5.73;;;;;;;;;;4918188;29;20185;-76
2023/09/13 03:48:11;;;;;;;7.50;5.60;;;;;;;;;;4907143;29;20212;-75
2023/09/13 03:51:15;;;;;;;9.90;5.97;;;;;;;;;;4918549;29;20224;-75
2023/09/13 03:54:19;;;;;;;9.73;5.93;;;;;;;;;;4919475;29;20193;-75
2023/09/13 03:57:24;;;;;;;7.67;5.73;;;;;;;;;;4918558;29;20189;-75
2023/09/13 04:00:28;;;;;;;7.57;5.33;;;;;;;;;;4918473;29;20625;-76
2023/09/13 04:03:32;;;;;;;9.00;5.93;;;;;;;;;;4907471;29;20208;-76
2023/09/13 04:06:39;;;;;;;6.33;5.50;;;;;;;;;;4918168;29;20216;-75
2023/09/13 04:09:43;;;;;;;8.07;5.07;;;;;;;;;;4907626;29;20189;-75
2023/09/13 04:12:48;;;;;;;7.37;5.17;;;;;;;;;;4918552;29;20228;-76
2023/09/13 04:15:52;;;;;;;6.33;5.63;;;;;;;;;;4918259;29;20189;-75
2023/09/13 04:18:56;;;;;;;10.90;5.80;;;;;;;;;;4919061;29;20181;-75
2023/09/13 04:22:00;;;;;;;6.20;5.00;;;;;;;;;;4920840;29;20220;-75
2023/09/13 04:25:05;;;;;;;7.27;5.53;;;;;;;;;;4921695;29;20192;-75
2023/09/13 04:28:10;;;;;;;6.43;5.77;;;;;;;;;;4921883;29;20216;-75
2023/09/13 04:31:14;;;;;;;6.23;5.50;;;;;;;;;;4910474;29;20216;-75
2023/09/13 04:34:18;;;;;;;5.97;5.20;;;;;;;;;;4912082;29;20181;-75
2023/09/13 04:37:25;;;;;;;6.67;5.33;;;;;;;;;;4923506;29;20629;-75
2023/09/13 04:40:31;;;;;;;7.93;5.53;;;;;;;;;;4912887;29;20193;-75
2023/09/13 04:43:35;;;;;;;8.40;5.20;;;;;;;;;;4922343;29;20181;-75
2023/09/13 04:46:40;;;;;;;7.73;5.37;;;;;;;;;;4911622;29;20668;-76
2023/09/13 04:49:44;;;;;;;6.47;5.10;;;;;;;;;;4910590;29;20188;-75
2023/09/13 04:52:48;;;;;;;8.60;5.50;;;;;;;;;;4921740;29;20216;-75
2023/09/13 04:55:52;;;;;;;8.23;5.57;;;;;;;;;;4921278;29;20185;-75
2023/09/13 04:58:57;;;;;;;7.73;5.47;;;;;;;;;;4909619;29;20181;-77
2023/09/13 05:02:01;;;;;;;6.23;5.50;;;;;;;;;;4904120;29;20236;-75
2023/09/13 05:05:06;;;;;;;9.57;5.77;;;;;;;;;;4921509;29;20189;-74
2023/09/13 05:08:15;;;;;;;6.60;5.77;;;;;;;;;;4910324;29;20672;-74
2023/09/13 05:11:20;;;;;;;6.07;5.13;;;;;;;;;;4918380;29;20710;-75
2023/09/13 05:14:24;;;;;;;6.57;5.20;;;;;;;;;;4918000;29;20189;-74
2023/09/13 05:17:29;;;;;;;7.97;5.17;;;;;;;;;;4906563;29;20522;-75
2023/09/13 05:20:33;;;;;;;9.60;5.40;;;;;;;;;;4917172;29;20181;-74
2023/09/13 05:23:38;;;;;;;7.87;5.10;;;;;;;;;;4917390;29;20177;-74
2023/09/13 05:26:42;;;;;;;8.30;5.23;;;;;;;;;;4916934;29;20176;-74
2023/09/13 05:29:48;;;;;;;8.00;5.00;;;;;;;;;;4917166;29;20660;-75
2023/09/13 05:32:53;;;;;;;8.17;5.47;;;;;;;;;;4905566;29;20581;-75
2023/09/13 05:35:57;;;;;;;7.60;5.20;;;;;;;;;;4917558;29;20538;-75
2023/09/13 05:39:03;;;;;;;6.33;5.20;;;;;;;;;;4905767;29;20522;-76
2023/09/13 05:42:07;;;;;;;8.27;5.27;;;;;;;;;;4917331;29;20700;-75
2023/09/13 05:45:11;;;;;;;6.60;5.73;;;;;;;;;;4920637;29;20189;-76
2023/09/13 05:48:15;;;;;;;8.87;5.40;;;;;;;;;;4920977;29;20561;-76
2023/09/13 05:51:19;;;;;;;7.73;5.20;;;;;;;;;;4920995;29;20212;-75
2023/09/13 05:54:23;;;;;;;6.57;5.27;;;;;;;;;;4920701;29;20640;-75
2023/09/13 05:57:28;;;;;;;7.00;5.37;;;;;;;;;;4909366;29;20185;-75
2023/09/13 06:00:32;;;;;;;7.77;5.23;;;;;;;;;;4920221;29;20538;-75
2023/09/13 06:03:36;;;;;;;8.10;5.53;;;;;;;;;;4919841;29;20224;-75
2023/09/13 06:06:40;;;;;;;6.87;5.47;;;;;;;;;;4920276;29;20185;-76
2023/09/13 06:09:45;;;;;;;6.67;5.00;;;;;;;;;;4920614;29;20193;-76
2023/09/13 06:12:50;;;;;;;8.63;5.10;;;;;;;;;;4898752;29;20216;-76
2023/09/13 06:15:54;;;;;;;8.10;5.57;;;;;;;;;;4909810;29;20180;-77
2023/09/13 06:18:59;;;;;;;9.60;5.63;;;;;;;;;;4920495;29;20181;-76
2023/09/13 06:22:03;;;;;;;9.40;5.17;;;;;;;;;;4919995;29;20224;-76
2023/09/13 06:25:08;;;;;;;7.13;5.00;;;;;;;;;;4920068;29;20193;-77
2023/09/13 06:28:12;;;;;;;7.93;5.83;;;;;;;;;;4920198;29;20216;-77
2023/09/13 06:31:16;;;;;;;7.13;5.40;;;;;;;;;;4921050;29;20703;-76
2023/09/13 06:34:20;;;;;;;6.70;5.13;;;;;;;;;;4909527;29;20184;-77
2023/09/13 06:37:28;;;;;;;10.03;5.20;;;;;;;;;;4920046;29;20181;-76
2023/09/13 06:40:33;;;;;;;7.80;5.03;;;;;;;;;;4919873;29;20189;-77
2023/09/13 06:43:38;;;;;;;9.13;4.73;;;;;;;;;;4921132;29;20185;-77
2023/09/13 06:46:43;;;;;;;9.50;5.20;;;;;;;;;;4920077;29;20185;-77
2023/09/13 06:49:46;;;;;;;6.63;4.30;;;;;;;;;;4909179;29;20177;-77
2023/09/13 06:52:51;;;;;;;8.50;5.50;;;;;;;;;;4908519;29;20228;-77
2023/09/13 06:55:55;;;;;;;6.40;5.40;;;;;;;;;;4904824;29;20213;-77
2023/09/13 06:58:59;;;;;;;6.93;5.07;;;;;;;;;;4901157;29;20190;-77
2023/09/13 07:02:03;;;;;;;5.33;4.83;;;;;;;;;;4892794;29;20229;-77
2023/09/13 07:05:07;;;;;;;7.87;5.23;;;;;;;;;;4917250;29;20204;-77
2023/09/13 07:08:11;;;;;;;9.53;4.80;;;;;;;;;;4901671;29;20256;-76
2023/09/13 07:11:16;;;;;;;9.10;5.67;;;;;;;;;;4901573;29;20221;-77
2023/09/13 07:14:20;;;;;;;8.43;5.30;;;;;;;;;;4900935;29;20186;-76
2023/09/13 07:17:24;;;;;;;7.03;4.90;;;;;;;;;;4907781;29;20201;-77
2023/09/13 07:20:28;;;;;;;8.37;5.20;;;;;;;;;;4902906;29;20201;-77
2023/09/13 07:23:33;;;;;;;9.03;5.53;;;;;;;;;;4911762;29;20181;-77
2023/09/13 07:26:38;;;;;;;7.40;4.67;;;;;;;;;;4890026;29;20185;-77
2023/09/13 07:29:42;;;;;;;8.27;5.47;;;;;;;;;;4907689;29;20200;-77
2023/09/13 07:32:48;;;;;;;8.17;4.67;;;;;;;;;;4907673;29;20224;-76
2023/09/13 07:35:52;;;;;;;7.53;4.57;;;;;;;;;;4920275;29;20629;-76
2023/09/13 07:38:56;;;;;;;6.63;4.43;;;;;;;;;;4905808;29;20212;-78
2023/09/13 07:42:00;;;;;;;6.50;4.60;;;;;;;;;;4908023;29;20220;-77
2023/09/13 07:45:06;;;;;;;4.93;4.43;;;;;;;;;;4919527;29;20213;-78
2023/09/13 07:48:10;;;;;;;7.00;4.37;;;;;;;;;;4908385;29;20224;-78
2023/09/13 07:51:14;;;;;;;5.53;3.70;;;;;;;;;;4908195;29;20216;-77
2023/09/13 07:54:18;;;;;;;7.23;4.23;;;;;;;;;;4918999;29;20629;-75
2023/09/13 07:57:22;;;;;;;4.50;4.07;;;;;;;;;;4918731;29;20189;-76
2023/09/13 08:00:26;;;;;;;4.43;3.50;;;;;;;;;;4930563;29;20215;-77
2023/09/13 08:03:30;;;;;;;6.70;3.80;;;;;;;;;;4923763;29;20213;-76
2023/09/13 08:06:34;;;;;;;16.87;4.03;;;;;;;;;;4918275;29;20523;-76
2023/09/13 08:09:38;;;;;;;4.20;3.80;;;;;;;;;;4919030;29;20546;-78
2023/09/13 08:12:42;;;;;;;3.83;3.37;;;;;;;;;;4909041;29;20221;-78
2023/09/13 08:15:48;;;;;;;3.73;3.27;;;;;;;;;;4919471;29;20542;-78
2023/09/13 08:18:52;;;;;;;4.43;2.80;;;;;;;;;;4920467;29;20187;-78
2023/09/13 08:21:56;;;;;;;5.03;2.80;;;;;;;;;;4906400;29;20238;-77
2023/09/13 08:25:00;;;;;;;3.47;2.63;;;;;;;;;;4904411;29;20546;-76
2023/09/13 08:28:05;;;;;;;226.63;17.37;;;;;;;;;;4904628;29;20705;-77
2023/09/13 08:31:10;;;;;;;19.67;4.40;;;;;;;;;;4916056;29;20252;-77
2023/09/13 08:34:14;;;;;;;10.57;3.33;;;;;;;;;;4918196;29;20196;-77
2023/09/13 08:37:18;;;;;;;3.53;2.70;;;;;;;;;;4906835;29;20265;-77
2023/09/13 08:40:24;;;;;;;4.00;2.90;;;;;;;;;;4917378;29;20206;-77
2023/09/13 08:43:28;;;;;;;4.53;2.87;;;;;;;;;;4916516;29;20202;-76
2023/09/13 08:46:34;;;;;;;5.27;2.87;;;;;;;;;;4909962;29;20547;-77
2023/09/13 08:49:39;;;;;;;3.80;3.10;;;;;;;;;;4917048;29;20220;-76
2023/09/13 08:52:43;;;;;;;4.73;3.17;;;;;;;;;;4916991;29;20232;-77
2023/09/13 08:55:48;;;;;;;3.50;3.07;;;;;;;;;;4917355;29;20182;-76
2023/09/13 08:58:52;;;;;;;5.83;3.60;;;;;;;;;;4917482;29;20209;-76
2023/09/13 09:01:57;;;;;;;5.90;3.30;;;;;;;;;;4927588;29;20695;-76
2023/09/13 09:05:04;;;;;;;5.53;3.40;;;;;;;;;;4917576;29;20182;-76
2023/09/13 09:08:10;;;;;;;6.33;3.60;;;;;;;;;;4918009;29;20546;-76
2023/09/13 09:11:16;;;;;;;5.37;4.13;;;;;;;;;;4916932;29;20220;-75
2023/09/13 09:14:21;;;;;;;8.37;4.17;;;;;;;;;;4915972;29;20201;-76
2023/09/13 09:17:27;;;;;;;4.60;3.37;;;;;;;;;;4899291;29;20210;-76
2023/09/13 09:20:31;;;;;;;5.77;3.70;;;;;;;;;;4900919;29;20197;-76
2023/09/13 09:23:38;;;;;;;33.43;5.20;;;;;;;;;;4916378;29;20193;-77
2023/09/13 09:26:42;;;;;;;4.67;3.80;;;;;;;;;;4900674;29;20207;-76
2023/09/13 09:29:46;;;;;;;4.30;3.60;;;;;;;;;;4910296;29;20687;-76
2023/09/13 09:32:58;;;;;;;5.73;3.90;;;;;;;;;;4894838;29;20567;-77
2023/09/13 09:36:03;;;;;;;4.13;3.73;;;;;;;;;;4916673;29;20187;-77
2023/09/13 09:39:08;;;;;;;7.10;3.90;;;;;;;;;;4917041;29;20184;-77
2023/09/13 09:42:15;;;;;;;5.27;4.03;;;;;;;;;;4905053;29;20222;-77
2023/09/13 09:45:21;;;;;;;8.93;5.20;;;;;;;;;;4916582;29;20637;-77
2023/09/13 09:48:28;;;;;;;16.20;7.77;;;;;;;;;;4917449;29;20216;-77
2023/09/13 09:51:32;;;;;;;8.30;4.20;;;;;;;;;;4905838;29;20582;-77
2023/09/13 09:54:37;;;;;;;12.40;5.33;;;;;;;;;;4916620;29;20192;-76
2023/09/13 09:57:46;;;;;;;5.47;4.17;;;;;;;;;;4908369;29;20214;-75
2023/09/13 10:00:53;;;;;;;4.53;3.83;;;;;;;;;;4908146;29;20553;-76
2023/09/13 10:04:08;;;;;;;4.93;4.03;;;;;;;;;;4885991;29;20218;-76
2023/09/13 10:07:12;;;;;;;6.20;4.40;;;;;;;;;;4905209;29;20181;-77
2023/09/13 10:10:37;;;;;;;4.80;3.90;;;;;;;;;;4905094;29;20183;-77
2023/09/13 10:13:45;;;;;;;5.28;3.80;;;;;;;;;;4905552;29;20191;-77
2023/09/13 10:16:49;;;;;;;4.47;4.07;;;;;;;;;;4916879;29;20189;-77
2023/09/13 10:19:54;;;;;;;5.00;4.50;;;;;;;;;;4905268;29;20525;-77
2023/09/13 10:23:01;;;;;;;7.53;4.22;;;;;;;;;;4915822;29;20222;-77
2023/09/13 10:26:08;;;;;;;5.90;4.47;;;;;;;;;;4916814;29;20192;-77
2023/09/13 10:29:19;;;;;;;5.72;4.20;;;;;;;;;;4918493;29;20215;-76
2023/09/13 10:32:32;;;;;;;6.03;4.32;;;;;;;;;;4923113;29;20224;-74
2023/09/13 10:35:06;;;;;;;6.65;4.38;;;;;;;;;;4938116;23;20252;-74
2023/09/13 10:38:26;;;;;;;4.75;4.00;;;;;;;;;;4936216;23;20240;-75
2023/09/13 10:41:34;;;;;;;5.43;3.70;;;;;;;;;;4903265;29;20213;-75
2023/09/13 10:44:40;;;;;;;4.63;3.88;;;;;;;;;;4913454;29;20197;-75
2023/09/13 10:47:50;;;;;;;4.30;3.90;;;;;;;;;;4919150;29;20639;-76
2023/09/13 10:50:55;;;;;;;5.63;3.72;;;;;;;;;;4919050;29;20180;-76
2023/09/13 10:54:01;;;;;;;6.25;3.60;;;;;;;;;;4908466;29;20686;-75
2023/09/13 10:57:06;;;;;;;4.05;3.47;;;;;;;;;;4918824;29;20191;-76
2023/09/13 11:00:11;;;;;;;8.13;4.05;;;;;;;;;;4919045;29;20187;-76
2023/09/13 11:03:17;;;;;;;4.40;3.72;;;;;;;;;;4919646;29;20189;-75
2023/09/13 11:06:24;;;;;;;6.07;3.22;;;;;;;;;;4929489;29;20188;-76
2023/09/13 11:09:32;;;;;;;7.70;3.58;;;;;;;;;;4918607;29;20220;-76
2023/09/13 11:12:37;;;;;;;6.22;3.90;;;;;;;;;;4918486;29;20225;-76
2023/09/13 11:15:48;;;;;;;7.22;4.25;;;;;;;;;;4919572;29;20184;-76
2023/09/13 11:18:55;;;;;;;6.82;4.13;;;;;;;;;;4907578;29;20176;-76
2023/09/13 11:22:02;;;;;;;6.90;4.22;;;;;;;;;;4918280;29;20222;-75
2023/09/13 11:25:12;;;;;;;6.88;4.28;;;;;;;;;;4919275;29;20182;-76
2023/09/13 11:28:31;;;;;;;5.53;4.00;;;;;;;;;;4919217;29;20183;-75
2023/09/13 11:31:56;;;;;;;5.45;4.05;;;;;;;;;;4907568;29;20225;-75
2023/09/13 11:35:01;;;;;;;9.65;4.88;;;;;;;;;;4919233;29;20188;-76
2023/09/13 11:38:06;;;;;;;4.72;3.65;;;;;;;;;;4919372;29;20555;-76
2023/09/13 11:41:17;;;;;;;7.03;3.50;;;;;;;;;;4917656;29;20213;-76
2023/09/13 11:44:24;;;;;;;13.07;8.57;;;;;;;;;;4919300;29;20649;-76
2023/09/13 11:47:33;;;;;;;7.35;5.32;;;;;;;;;;4907413;29;20577;-76
2023/09/13 11:50:42;;;;;;;15.50;4.20;;;;;;;;;;4917997;29;20212;-75
2023/09/13 11:53:48;;;;;;;34.03;14.85;;;;;;;;;;4919038;29;20666;-75
2023/09/13 11:56:54;;;;;;;5.78;3.92;;;;;;;;;;4918029;29;20550;-75
2023/09/13 12:00:03;;;;;;;5.68;3.60;;;;;;;;;;4917964;29;20187;-76
2023/09/13 12:03:17;;;;;;;4.63;3.00;;;;;;;;;;4917944;29;20648;-75
2023/09/13 12:06:21;;;;;;;4.90;3.45;;;;;;;;;;4917749;29;20526;-75
2023/09/13 12:09:26;;;;;;;47.63;7.07;;;;;;;;;;4918299;29;20214;-76
2023/09/13 12:12:41;;;;;;;4.70;3.58;;;;;;;;;;4918231;29;20228;-76
2023/09/13 12:16:01;;;;;;;6.68;3.78;;;;;;;;;;4906768;29;20188;-75
2023/09/13 12:19:06;;;;;;;3.95;3.20;;;;;;;;;;4918492;29;20174;-76
2023/09/13 12:22:14;;;;;;;6.25;3.30;;;;;;;;;;4918690;29;20218;-76
2023/09/13 12:25:18;;;;;;;4.82;3.65;;;;;;;;;;4917257;29;20190;-75
2023/09/13 12:28:36;;;;;;;9.75;4.00;;;;;;;;;;4918668;29;20187;-76
2023/09/13 12:31:40;;;;;;;5.22;3.30;;;;;;;;;;4929238;29;20219;-76
2023/09/13 12:34:45;;;;;;;12.48;5.10;;;;;;;;;;4932882;29;20663;-75
2023/09/13 12:37:59;;;;;;;31.63;7.40;;;;;;;;;;4918875;29;20213;-75
2023/09/13 12:41:04;;;;;;;8.82;4.05;;;;;;;;;;4929025;29;20229;-75
2023/09/13 12:44:09;;;;;;;3.00;2.58;;;;;;;;;;4917998;29;20187;-75
2023/09/13 12:47:17;;;;;;;5.80;2.90;;;;;;;;;;4918072;29;20191;-75
2023/09/13 12:50:22;;;;;;;6.95;2.92;;;;;;;;;;4918691;29;20214;-75
2023/09/13 12:53:28;;;;;;;4.65;2.88;;;;;;;;;;4917743;29;20211;-76
2023/09/13 12:56:33;;;;;;;6.18;3.20;;;;;;;;;;4918422;29;20200;-75
2023/09/13 12:59:44;;;;;;;4.40;2.60;;;;;;;;;;4909495;29;20178;-76
2023/09/13 13:02:53;;;;;;;2.80;2.50;;;;;;;;;;4921629;29;20546;-75
2023/09/13 13:06:02;;;;;;;2.72;2.25;;;;;;;;;;4909422;29;20502;-75
2023/09/13 13:09:08;;;;;;;5.15;2.28;;;;;;;;;;4920241;29;20552;-75
2023/09/13 13:12:15;;;;;;;3.08;2.45;;;;;;;;;;4919446;29;20228;-75
2023/09/13 13:15:20;;;;;;;4.97;2.63;;;;;;;;;;4920116;29;20189;-75
2023/09/13 13:18:24;;;;;;;2.80;2.47;;;;;;;;;;4921012;29;20188;-75
2023/09/13 13:21:28;;;;;;;3.42;2.45;;;;;;;;;;4920256;29;20214;-74
2023/09/13 13:24:32;;;;;;;3.25;2.30;;;;;;;;;;4909952;29;20177;-74
2023/09/13 13:27:37;;;;;;;2.85;1.90;;;;;;;;;;4920582;29;20185;-74
2023/09/13 13:30:41;;;;;;;5.38;2.30;;;;;;;;;;4920687;29;20211;-74
2023/09/13 13:33:45;;;;;;;2.63;2.22;;;;;;;;;;4920036;29;20191;-76
2023/09/13 13:36:49;;;;;;;7.75;2.20;;;;;;;;;;4919976;29;20196;-75
2023/09/13 13:39:54;;;;;;;4.38;2.30;;;;;;;;;;4920156;29;20183;-75
2023/09/13 13:42:57;;;;;;;2.85;2.30;;;;;;;;;;4919651;29;20700;-74
2023/09/13 13:46:03;;;;;;;2.72;2.30;;;;;;;;;;4919251;29;20189;-74
2023/09/13 13:49:07;;;;;;;4.00;2.20;;;;;;;;;;4919885;29;20185;-75
2023/09/13 13:52:12;;;;;;;4.55;2.35;;;;;;;;;;4920034;29;20697;-75
2023/09/13 13:55:16;;;;;;;3.15;2.35;;;;;;;;;;4919472;29;20192;-75
2023/09/13 13:58:21;;;;;;;2.42;2.13;;;;;;;;;;4918902;29;20190;-75
2023/09/13 14:01:25;;;;;;;7.10;2.40;;;;;;;;;;4919327;29;20700;-74
2023/09/13 14:04:29;;;;;;;2.70;2.20;;;;;;;;;;4921145;29;20185;-75
2023/09/13 14:07:33;;;;;;;5.20;1.80;;;;;;;;;;4922782;29;20189;-74
2023/09/13 14:10:41;;;;;;;5.47;2.00;;;;;;;;;;4921807;29;20214;-75
2023/09/13 14:13:45;;;;;;;2.92;2.08;;;;;;;;;;4922246;29;20184;-75
2023/09/13 14:16:49;;;;;;;3.57;1.90;;;;;;;;;;4922128;29;20186;-75
2023/09/13 14:19:53;;;;;;;5.67;2.23;;;;;;;;;;4923449;29;20181;-75
2023/09/13 14:22:58;;;;;;;1.93;1.60;;;;;;;;;;4922658;29;20216;-75
2023/09/13 14:26:02;;;;;;;4.13;2.07;;;;;;;;;;4921998;29;20180;-75
2023/09/13 14:29:07;;;;;;;3.07;1.77;;;;;;;;;;4922027;29;20193;-74
2023/09/13 14:32:11;;;;;;;2.80;2.43;;;;;;;;;;4909967;29;20566;-76
2023/09/13 14:35:15;;;;;;;3.37;2.10;;;;;;;;;;4922200;29;20532;-74
2023/09/13 14:38:20;;;;;;;2.00;1.80;;;;;;;;;;4909858;29;20550;-75
2023/09/13 14:41:24;;;;;;;2.10;1.90;;;;;;;;;;4931151;29;20541;-73
2023/09/13 14:44:28;;;;;;;3.37;1.90;;;;;;;;;;4920506;29;20527;-74
2023/09/13 14:47:32;;;;;;;2.53;2.03;;;;;;;;;;4921574;29;20185;-75
2023/09/13 14:50:39;;;;;;;3.17;2.13;;;;;;;;;;4920947;29;20221;-75
2023/09/13 14:53:43;;;;;;;3.13;2.00;;;;;;;;;;4920814;29;20185;-75
2023/09/13 14:56:47;;;;;;;3.00;2.03;;;;;;;;;;4921107;29;20185;-75
2023/09/13 14:59:51;;;;;;;3.70;1.80;;;;;;;;;;4909384;29;20186;-75
2023/09/13 15:03:00;;;;;;;2.43;1.83;;;;;;;;;;4920064;29;20705;-74
2023/09/13 15:06:04;;;;;;;3.30;1.90;;;;;;;;;;4909400;29;20192;-75
2023/09/13 15:09:10;;;;;;;3.07;2.00;;;;;;;;;;4919421;29;20653;-75
2023/09/13 15:12:15;;;;;;;3.80;2.10;;;;;;;;;;4919013;29;20221;-75
2023/09/13 15:15:19;;;;;;;2.07;1.90;;;;;;;;;;4918395;29;20249;-75
2023/09/13 15:18:24;;;;;;;2.33;1.80;;;;;;;;;;4920002;29;20337;-75
2023/09/13 15:21:29;;;;;;;4.73;2.00;;;;;;;;;;4920248;29;20217;-75
2023/09/13 15:24:36;;;;;;;2.10;1.70;;;;;;;;;;4920084;29;20187;-75
2023/09/13 15:27:40;;;;;;;4.23;2.00;;;;;;;;;;4919709;29;20188;-75
2023/09/13 15:30:46;;;;;;;3.07;1.83;;;;;;;;;;4919567;29;20207;-74
2023/09/13 15:33:50;;;;;;;2.23;2.03;;;;;;;;;;4919495;29;20191;-75
2023/09/13 15:36:55;;;;;;;3.90;1.97;;;;;;;;;;4919086;29;20187;-75
2023/09/13 15:40:06;;;;;;;2.10;1.80;;;;;;;;;;4907954;29;20184;-75
2023/09/13 15:43:10;;;;;;;1.97;1.77;;;;;;;;;;4918632;29;20186;-77
2023/09/13 15:46:15;;;;;;;31.13;3.93;;;;;;;;;;4918610;29;20191;-78
2023/09/13 15:49:22;;;;;;;9.10;2.10;;;;;;;;;;4918558;29;20192;-76
2023/09/13 15:52:26;;;;;;;2.07;1.87;;;;;;;;;;4919813;29;20545;-77
2023/09/13 15:55:31;;;;;;;2.17;1.83;;;;;;;;;;4918351;29;20192;-77
2023/09/13 15:58:35;;;;;;;4.87;2.40;;;;;;;;;;4918849;29;20525;-77
2023/09/13 16:01:40;;;;;;;4.57;2.07;;;;;;;;;;4919476;29;20696;-75
2023/09/13 16:04:44;;;;;;;2.60;1.93;;;;;;;;;;4919429;29;20187;-76
2023/09/13 16:07:48;;;;;;;5.23;2.07;;;;;;;;;;4907434;29;20187;-76
2023/09/13 16:10:52;;;;;;;10.10;2.00;;;;;;;;;;4918015;29;20213;-76
2023/09/13 16:13:56;;;;;;;6.30;1.77;;;;;;;;;;4918179;29;20557;-76
2023/09/13 16:17:01;;;;;;;2.83;1.80;;;;;;;;;;4907488;29;20526;-76
2023/09/13 16:20:06;;;;;;;3.40;1.90;;;;;;;;;;4918381;29;20179;-76
2023/09/13 16:23:12;;;;;;;15.73;2.80;;;;;;;;;;4918218;29;20186;-76
2023/09/13 16:26:16;;;;;;;4.43;1.90;;;;;;;;;;4918172;29;20198;-75
2023/09/13 16:29:20;;;;;;;3.90;2.10;;;;;;;;;;4918636;29;20182;-75
2023/09/13 16:32:25;;;;;;;2.50;1.90;;;;;;;;;;4919031;29;20216;-75
2023/09/13 16:35:30;;;;;;;4.63;2.20;;;;;;;;;;4918625;29;20190;-75
2023/09/13 16:38:34;;;;;;;4.93;2.00;;;;;;;;;;4918340;29;20213;-76
2023/09/13 16:41:38;;;;;;;11.83;8.17;;;;;;;;;;4917681;29;20226;-75
2023/09/13 16:44:42;;;;;;;12.67;9.83;;;;;;;;;;4918911;29;20198;-77
2023/09/13 16:47:46;;;;;;;13.80;9.73;;;;;;;;;;4917727;29;20661;-76
2023/09/13 16:50:50;;;;;;;17.30;10.23;;;;;;;;;;4906835;29;20215;-77
2023/09/13 16:53:56;;;;;;;7.47;4.13;;;;;;;;;;4917612;29;20188;-76
2023/09/13 16:56:59;;;;;;;18.20;9.80;;;;;;;;;;4918029;29;20186;-76
2023/09/13 17:00:04;;;;;;;9.40;5.93;;;;;;;;;;4907072;29;20185;-76
2023/09/13 17:03:10;;;;;;;11.43;4.93;;;;;;;;;;4917824;29;20631;-76
2023/09/13 17:06:14;;;;;;;5.63;3.93;;;;;;;;;;4917714;29;20189;-76
2023/09/13 17:09:18;;;;;;;6.13;3.03;;;;;;;;;;4918119;29;20184;-75
2023/09/13 17:12:22;;;;;;;6.67;2.90;;;;;;;;;;4917807;29;20236;-74
2023/09/13 17:15:27;;;;;;;8.47;4.13;;;;;;;;;;4917519;29;20189;-76
2023/09/13 17:18:31;;;;;;;3.60;2.40;;;;;;;;;;4918107;29;20189;-75
2023/09/13 17:21:35;;;;;;;4.87;3.20;;;;;;;;;;4906252;29;20221;-76
2023/09/13 17:24:39;;;;;;;4.20;2.87;;;;;;;;;;4918063;29;20641;-76
2023/09/13 17:27:43;;;;;;;3.90;2.10;;;;;;;;;;4917092;29;20185;-75
2023/09/13 17:30:47;;;;;;;8.90;3.40;;;;;;;;;;4928179;29;20300;-77
2023/09/13 17:33:52;;;;;;;3.07;2.50;;;;;;;;;;4918136;29;20189;-77
2023/09/13 17:36:57;;;;;;;3.90;2.77;;;;;;;;;;4917475;29;20192;-76
2023/09/13 17:40:01;;;;;;;4.43;2.23;;;;;;;;;;4916724;29;20633;-76
2023/09/13 17:43:05;;;;;;;6.13;2.83;;;;;;;;;;4906875;29;20181;-76
2023/09/13 17:46:09;;;;;;;2.67;2.30;;;;;;;;;;4918411;29;20188;-77
2023/09/13 17:49:14;;;;;;;4.03;2.63;;;;;;;;;;4917176;29;20192;-77
2023/09/13 17:52:19;;;;;;;4.33;2.80;;;;;;;;;;4928540;29;20233;-77
2023/09/13 17:55:23;;;;;;;3.43;2.60;;;;;;;;;;4906617;29;20656;-76
2023/09/13 17:58:27;;;;;;;5.00;2.50;;;;;;;;;;4917182;29;20185;-76
2023/09/13 18:01:31;;;;;;;4.23;2.53;;;;;;;;;;4917204;29;20212;-76
2023/09/13 18:04:35;;;;;;;3.03;2.57;;;;;;;;;;4927881;29;20530;-76
2023/09/13 18:07:40;;;;;;;3.90;3.03;;;;;;;;;;4917954;29;20193;-77
2023/09/13 18:10:44;;;;;;;3.90;2.70;;;;;;;;;;4927751;29;20216;-76
2023/09/13 18:13:48;;;;;;;2.97;2.60;;;;;;;;;;4918391;29;20185;-77
2023/09/13 18:16:54;;;;;;;4.07;2.60;;;;;;;;;;4917242;29;20189;-77
2023/09/13 18:19:58;;;;;;;5.67;2.77;;;;;;;;;;4906650;29;20181;-76
2023/09/13 18:23:03;;;;;;;3.40;2.70;;;;;;;;;;4918209;29;20221;-76
2023/09/13 18:26:09;;;;;;;4.03;2.93;;;;;;;;;;4917277;29;20189;-76
2023/09/13 18:29:13;;;;;;;6.43;2.80;;;;;;;;;;4918497;29;20185;-77